Yuma Proving Ground, Arizona
Current Conditions -  °F | °C
As of 6:57 AM on Sunday 25 Jan 2015 (Local Time) from KNYL Reporting Station
Clear Clear  
Wind Chill: 55°   Ceiling: Unl
Heat Index: 55°   Visibility: 10mi
Dew Point: 24°   Wind: 9mph
Humidity: 30%   Direction: 20°NNE
Pressure: 30.06"   Gusts: NA
Location:  32.7338°N, 114.51°W
Report Text: KNYL 251357Z AUTO 02008KT 10SM CLR 13/M04 A3006 RMK AO2 SLP178 T01281044 $
Loading
Personal Weather Stations






























Interactive Weather Map New forecast layout! Learn more

10-Day Weather Forecast

Advertisements
Track Severe Weather on mobile